Arkansaw, WI

1:51 PM CDT on March 31, 2015 (GMT -0500)
SIGHT-SEA-ER II | | Change Station
CLOSE
Current Station
Personal Weather Station
Location: Lake City, MN
Elevation: 728 ft
Nearby Weather Stations

Elev 728 ft 44.47 °N, 92.30 °W | Updated 7 minutes ago

Clear
Clear
59.7 °F
Feels Like 59.7 °F
N
15.0
Wind Variable Wind from NW
Gusts 17.0 mph

Today
High -- | Low -- °F
--% Chance of Precip.
Yesterday
High -- | Low -- °F
Precip. -- in
6:51 AM 7:34 PM
Waxing Gibbous, 88% visible
Pressure 29.91 in
Visibility 10.0 miles
Clouds Clear
Dew Point 41 °F
Humidity 50%
Rainfall 0.00 in
Snow Depth Not available.
UV 7 out of 12
Pollen 5.70 out of 12
Air Quality Not available.
Flu Activity Not available.
METAR KRGK 311831Z AUTO 31011G16KT 10SM CLR 17/00 A2991 RMK AO2

More Conditions Fewer Conditions

Pressure 29.91 in
Visibility 10.0 miles
Clouds Clear
Dew Point 41 °F
Humidity 50%
Rainfall 0.00 in
Snow Depth Not available.
UV 7 out of 12
Pollen 5.70 out of 12
Air Quality Not available.
Flu Activity Not available.
METAR KRGK 311831Z AUTO 31011G16KT 10SM CLR 17/00 A2991 RMK AO2

More Conditions Fewer Conditions

10-Day Weather Forecast

Almanac

Astronomy

Mar. 31, 2015 Rise Set
Actual Time
Civil Twilight
Nautical Twilight
Astronomical Twilight
Moon
Length of Visible Light
Length of Day
Tomorrow will be .
, % of the Moon is Illuminated

Today's Extremes

State Highs State Lows

Community

WunderPhotos

Upload Photos

1,809,792 photos uploaded!

WunderBlogs® & News

Nearby

Air Quality

  Air Quality AQ Index Pollutant
Not available.

Snow Depth

Station Depth Elevation

Earthquake Activity

City Distance Mag. Time & Date
Minimum magnitude displayed is 2.5.

Coastal Water Temperatures

Place Temperature

Stations

Nearby Weather Stations

Station Location Temp. Windchill Dew Point Humidity Wind Precip. Elev Updated Type